sensor_id;sensor_type;location;lat;lon;timestamp;pressure;altitude;pressure_sealevel;temperature
84354;BMP280;74538;43.522;1.516;2024-02-14T00:02:09;100713.06;;;21.36
84354;BMP280;74538;43.522;1.516;2024-02-14T00:04:35;100710.09;;;21.34
84354;BMP280;74538;43.522;1.516;2024-02-14T00:07:00;100708.56;;;21.33
84354;BMP280;74538;43.522;1.516;2024-02-14T00:09:26;100701.66;;;21.32
84354;BMP280;74538;43.522;1.516;2024-02-14T00:11:52;100706.31;;;21.31
84354;BMP280;74538;43.522;1.516;2024-02-14T00:14:17;100709.47;;;21.30
84354;BMP280;74538;43.522;1.516;2024-02-14T00:16:45;100707.97;;;21.29
84354;BMP280;74538;43.522;1.516;2024-02-14T00:19:11;100717.22;;;21.28
84354;BMP280;74538;43.522;1.516;2024-02-14T00:21:37;100723.81;;;21.27
84354;BMP280;74538;43.522;1.516;2024-02-14T00:24:03;100721.56;;;21.25
84354;BMP280;74538;43.522;1.516;2024-02-14T00:26:30;100723.94;;;21.23
84354;BMP280;74538;43.522;1.516;2024-02-14T00:28:56;100729.78;;;21.22
84354;BMP280;74538;43.522;1.516;2024-02-14T00:31:21;100729.78;;;21.22
84354;BMP280;74538;43.522;1.516;2024-02-14T00:33:47;100745.97;;;21.22
84354;BMP280;74538;43.522;1.516;2024-02-14T00:36:13;100747.16;;;21.21
84354;BMP280;74538;43.522;1.516;2024-02-14T00:38:38;100749.53;;;21.18
84354;BMP280;74538;43.522;1.516;2024-02-14T00:41:04;100743.81;;;21.16
84354;BMP280;74538;43.522;1.516;2024-02-14T00:43:30;100746.53;;;21.16
84354;BMP280;74538;43.522;1.516;2024-02-14T00:45:55;100747.84;;;21.12
84354;BMP280;74538;43.522;1.516;2024-02-14T00:48:23;100740.19;;;21.10
84354;BMP280;74538;43.522;1.516;2024-02-14T00:50:49;100725.94;;;21.10
84354;BMP280;74538;43.522;1.516;2024-02-14T00:53:15;100722.53;;;21.09
84354;BMP280;74538;43.522;1.516;2024-02-14T00:55:41;100727.91;;;21.09
84354;BMP280;74538;43.522;1.516;2024-02-14T00:58:06;100730.28;;;21.07
84354;BMP280;74538;43.522;1.516;2024-02-14T01:00:32;100732.69;;;21.05
84354;BMP280;74538;43.522;1.516;2024-02-14T01:02:58;100722.75;;;21.02
84354;BMP280;74538;43.522;1.516;2024-02-14T01:05:24;100719.78;;;21.00
84354;BMP280;74538;43.522;1.516;2024-02-14T01:07:50;100723.66;;;20.99
84354;BMP280;74538;43.522;1.516;2024-02-14T01:10:16;100729.03;;;20.99
84354;BMP280;74538;43.522;1.516;2024-02-14T01:12:43;100733.69;;;20.99
84354;BMP280;74538;43.522;1.516;2024-02-14T01:15:09;100731.09;;;20.95
84354;BMP280;74538;43.522;1.516;2024-02-14T01:17:35;100734.97;;;20.94
84354;BMP280;74538;43.522;1.516;2024-02-14T01:20:01;100723.91;;;20.92
84354;BMP280;74538;43.522;1.516;2024-02-14T01:22:28;100730.50;;;20.91
84354;BMP280;74538;43.522;1.516;2024-02-14T01:24:53;100728.25;;;20.90
84354;BMP280;74538;43.522;1.516;2024-02-14T01:27:20;100726.00;;;20.88
84354;BMP280;74538;43.522;1.516;2024-02-14T01:29:48;100714.88;;;20.86
84354;BMP280;74538;43.522;1.516;2024-02-14T01:32:14;100722.69;;;20.84
84354;BMP280;74538;43.522;1.516;2024-02-14T01:34:39;100725.03;;;20.82
84354;BMP280;74538;43.522;1.516;2024-02-14T01:37:07;100720.84;;;20.81
84354;BMP280;74538;43.522;1.516;2024-02-14T01:39:35;100715.91;;;20.79
84354;BMP280;74538;43.522;1.516;2024-02-14T01:42:01;100717.50;;;20.77
84354;BMP280;74538;43.522;1.516;2024-02-14T01:44:32;100708.69;;;20.76
84354;BMP280;74538;43.522;1.516;2024-02-14T01:46:58;100709.56;;;20.73
84354;BMP280;74538;43.522;1.516;2024-02-14T01:49:24;100702.25;;;20.74
84354;BMP280;74538;43.522;1.516;2024-02-14T01:51:52;100699.22;;;20.72
84354;BMP280;74538;43.522;1.516;2024-02-14T01:54:19;100697.72;;;20.71
84354;BMP280;74538;43.522;1.516;2024-02-14T01:56:45;100707.00;;;20.70
84354;BMP280;74538;43.522;1.516;2024-02-14T01:59:12;100699.81;;;20.67
84354;BMP280;74538;43.522;1.516;2024-02-14T02:01:38;100704.44;;;20.66
84354;BMP280;74538;43.522;1.516;2024-02-14T02:04:04;100701.41;;;20.64
84354;BMP280;74538;43.522;1.516;2024-02-14T02:06:30;100701.84;;;20.63
84354;BMP280;74538;43.522;1.516;2024-02-14T02:08:56;100711.13;;;20.62
84354;BMP280;74538;43.522;1.516;2024-02-14T02:11:22;100709.19;;;20.62
84354;BMP280;74538;43.522;1.516;2024-02-14T02:13:47;100709.63;;;20.61
84354;BMP280;74538;43.522;1.516;2024-02-14T02:16:13;100711.56;;;20.60
84354;BMP280;74538;43.522;1.516;2024-02-14T02:18:40;100706.63;;;20.59
84354;BMP280;74538;43.522;1.516;2024-02-14T02:21:06;100702.41;;;20.58
84354;BMP280;74538;43.522;1.516;2024-02-14T02:23:33;100692.06;;;20.56
84354;BMP280;74538;43.522;1.516;2024-02-14T02:25:59;100695.97;;;20.55
84354;BMP280;74538;43.522;1.516;2024-02-14T02:28:25;100691.03;;;20.54
84354;BMP280;74538;43.522;1.516;2024-02-14T02:30:51;100689.22;;;20.51
84354;BMP280;74538;43.522;1.516;2024-02-14T02:33:18;100687.69;;;20.50
84354;BMP280;74538;43.522;1.516;2024-02-14T02:35:44;100681.22;;;20.47
84354;BMP280;74538;43.522;1.516;2024-02-14T02:38:11;100687.06;;;20.46
84354;BMP280;74538;43.522;1.516;2024-02-14T02:40:37;100689.00;;;20.45
84354;BMP280;74538;43.522;1.516;2024-02-14T02:43:03;100690.19;;;20.44
84354;BMP280;74538;43.522;1.516;2024-02-14T02:45:28;100686.44;;;20.41
84354;BMP280;74538;43.522;1.516;2024-02-14T02:47:54;100678.78;;;20.40
84354;BMP280;74538;43.522;1.516;2024-02-14T02:50:21;100686.88;;;20.40
84354;BMP280;74538;43.522;1.516;2024-02-14T02:52:47;100683.88;;;20.38
84354;BMP280;74538;43.522;1.516;2024-02-14T02:55:13;100687.75;;;20.37
84354;BMP280;74538;43.522;1.516;2024-02-14T02:57:41;100690.88;;;20.35
84354;BMP280;74538;43.522;1.516;2024-02-14T03:00:07;100685.16;;;20.33
84354;BMP280;74538;43.522;1.516;2024-02-14T03:02:33;100689.06;;;20.32
84354;BMP280;74538;43.522;1.516;2024-02-14T03:04:59;100689.47;;;20.31
84354;BMP280;74538;43.522;1.516;2024-02-14T03:07:25;100685.31;;;20.30
84354;BMP280;74538;43.522;1.516;2024-02-14T03:09:52;100688.44;;;20.28
84354;BMP280;74538;43.522;1.516;2024-02-14T03:12:17;100689.59;;;20.27
84354;BMP280;74538;43.522;1.516;2024-02-14T03:14:44;100690.78;;;20.26
84354;BMP280;74538;43.522;1.516;2024-02-14T03:17:09;100679.28;;;20.26
84354;BMP280;74538;43.522;1.516;2024-02-14T03:19:35;100674.34;;;20.24
84354;BMP280;74538;43.522;1.516;2024-02-14T03:22:05;100684.78;;;20.22
84354;BMP280;74538;43.522;1.516;2024-02-14T03:24:34;100683.28;;;20.21
84354;BMP280;74538;43.522;1.516;2024-02-14T03:27:03;100676.38;;;20.20
84354;BMP280;74538;43.522;1.516;2024-02-14T03:29:29;100674.88;;;20.19
84354;BMP280;74538;43.522;1.516;2024-02-14T03:31:55;100678.75;;;20.18
84354;BMP280;74538;43.522;1.516;2024-02-14T03:34:24;100670.38;;;20.16
84354;BMP280;74538;43.522;1.516;2024-02-14T03:36:50;100672.75;;;20.14
84354;BMP280;74538;43.522;1.516;2024-02-14T03:39:16;100676.63;;;20.13
84354;BMP280;74538;43.522;1.516;2024-02-14T03:41:42;100669.72;;;20.12
84354;BMP280;74538;43.522;1.516;2024-02-14T03:44:08;100668.22;;;20.11
84354;BMP280;74538;43.522;1.516;2024-02-14T03:46:34;100666.72;;;20.10
84354;BMP280;74538;43.522;1.516;2024-02-14T03:49:00;100664.47;;;20.09
84354;BMP280;74538;43.522;1.516;2024-02-14T03:51:26;100674.16;;;20.06
84354;BMP280;74538;43.522;1.516;2024-02-14T03:53:52;100676.09;;;20.05
84354;BMP280;74538;43.522;1.516;2024-02-14T03:56:18;100674.59;;;20.04
84354;BMP280;74538;43.522;1.516;2024-02-14T03:58:44;100675.31;;;20.05
84354;BMP280;74538;43.522;1.516;2024-02-14T04:01:09;100671.16;;;20.04
84354;BMP280;74538;43.522;1.516;2024-02-14T04:03:36;100671.59;;;20.02
84354;BMP280;74538;43.522;1.516;2024-02-14T04:06:01;100670.81;;;20.02
84354;BMP280;74538;43.522;1.516;2024-02-14T04:08:27;100669.31;;;20.01
84354;BMP280;74538;43.522;1.516;2024-02-14T04:10:55;100660.94;;;19.99
84354;BMP280;74538;43.522;1.516;2024-02-14T04:13:21;100667.09;;;19.99
84354;BMP280;74538;43.522;1.516;2024-02-14T04:15:47;100664.81;;;19.98
84354;BMP280;74538;43.522;1.516;2024-02-14T04:18:13;100663.00;;;19.95
84354;BMP280;74538;43.522;1.516;2024-02-14T04:20:41;100658.03;;;19.93
84354;BMP280;74538;43.522;1.516;2024-02-14T04:23:07;100657.00;;;19.91
84354;BMP280;74538;43.522;1.516;2024-02-14T04:25:33;100655.47;;;19.90
84354;BMP280;74538;43.522;1.516;2024-02-14T04:27:59;100662.03;;;19.89
84354;BMP280;74538;43.522;1.516;2024-02-14T04:30:25;100659.03;;;19.87
84354;BMP280;74538;43.522;1.516;2024-02-14T04:32:51;100666.78;;;19.85
84354;BMP280;74538;43.522;1.516;2024-02-14T04:35:19;100673.66;;;19.86
84354;BMP280;74538;43.522;1.516;2024-02-14T04:37:45;100667.97;;;19.84
84354;BMP280;74538;43.522;1.516;2024-02-14T04:40:13;100673.34;;;19.84
84354;BMP280;74538;43.522;1.516;2024-02-14T04:42:40;100673.00;;;19.82
84354;BMP280;74538;43.522;1.516;2024-02-14T04:45:06;100666.13;;;19.81
84354;BMP280;74538;43.522;1.516;2024-02-14T04:47:32;100673.88;;;19.79
84354;BMP280;74538;43.522;1.516;2024-02-14T04:49:58;100667.75;;;19.78
84354;BMP280;74538;43.522;1.516;2024-02-14T04:52:25;100677.00;;;19.77
84354;BMP280;74538;43.522;1.516;2024-02-14T04:54:50;100673.56;;;19.77
84354;BMP280;74538;43.522;1.516;2024-02-14T04:57:16;100680.13;;;19.76
84354;BMP280;74538;43.522;1.516;2024-02-14T04:59:44;100678.59;;;19.75
84354;BMP280;74538;43.522;1.516;2024-02-14T05:02:09;100674.84;;;19.72
84354;BMP280;74538;43.522;1.516;2024-02-14T05:04:36;100680.22;;;19.72
84354;BMP280;74538;43.522;1.516;2024-02-14T05:07:03;100679.91;;;19.70
84354;BMP280;74538;43.522;1.516;2024-02-14T05:09:29;100674.53;;;19.70
84354;BMP280;74538;43.522;1.516;2024-02-14T05:11:55;100671.53;;;19.68
84354;BMP280;74538;43.522;1.516;2024-02-14T05:14:20;100673.44;;;19.67
84354;BMP280;74538;43.522;1.516;2024-02-14T05:16:46;100675.81;;;19.65
84354;BMP280;74538;43.522;1.516;2024-02-14T05:19:12;100679.69;;;19.64
84354;BMP280;74538;43.522;1.516;2024-02-14T05:21:38;100673.56;;;19.64
84354;BMP280;74538;43.522;1.516;2024-02-14T05:24:04;100679.38;;;19.62
84354;BMP280;74538;43.522;1.516;2024-02-14T05:26:30;100678.63;;;19.62
84354;BMP280;74538;43.522;1.516;2024-02-14T05:28:55;100679.06;;;19.60
84354;BMP280;74538;43.522;1.516;2024-02-14T05:31:21;100673.34;;;19.58
84354;BMP280;74538;43.522;1.516;2024-02-14T05:33:47;100674.09;;;19.59
84354;BMP280;74538;43.522;1.516;2024-02-14T05:36:13;100681.41;;;19.58
84354;BMP280;74538;43.522;1.516;2024-02-14T05:38:38;100678.41;;;19.56
84354;BMP280;74538;43.522;1.516;2024-02-14T05:41:05;100678.41;;;19.56
84354;BMP280;74538;43.522;1.516;2024-02-14T05:43:33;100678.09;;;19.54
84354;BMP280;74538;43.522;1.516;2024-02-14T05:45:59;100670.03;;;19.54
84354;BMP280;74538;43.522;1.516;2024-02-14T05:48:26;100676.25;;;19.51
84354;BMP280;74538;43.522;1.516;2024-02-14T05:50:51;100676.25;;;19.51
84354;BMP280;74538;43.522;1.516;2024-02-14T05:53:17;100674.00;;;19.50
84354;BMP280;74538;43.522;1.516;2024-02-14T05:55:43;100670.25;;;19.47
84354;BMP280;74538;43.522;1.516;2024-02-14T05:58:09;100674.13;;;19.46
84354;BMP280;74538;43.522;1.516;2024-02-14T06:00:35;100669.13;;;19.45
84354;BMP280;74538;43.522;1.516;2024-02-14T06:03:01;100666.91;;;19.43
84354;BMP280;74538;43.522;1.516;2024-02-14T06:05:27;100669.59;;;19.43
84354;BMP280;74538;43.522;1.516;2024-02-14T06:07:52;100664.22;;;19.43
84354;BMP280;74538;43.522;1.516;2024-02-14T06:10:18;100660.03;;;19.42
84354;BMP280;74538;43.522;1.516;2024-02-14T06:12:44;100665.06;;;19.40
84354;BMP280;74538;43.522;1.516;2024-02-14T06:15:10;100675.81;;;19.40
84354;BMP280;74538;43.522;1.516;2024-02-14T06:17:35;100668.94;;;19.39
84354;BMP280;74538;43.522;1.516;2024-02-14T06:20:01;100681.94;;;19.41
84354;BMP280;74538;43.522;1.516;2024-02-14T06:22:32;100680.34;;;19.43
84354;BMP280;74538;43.522;1.516;2024-02-14T06:24:59;100688.72;;;19.45
84354;BMP280;74538;43.522;1.516;2024-02-14T06:27:25;100695.91;;;19.48
84354;BMP280;74538;43.522;1.516;2024-02-14T06:29:51;100697.00;;;19.51
84354;BMP280;74538;43.522;1.516;2024-02-14T06:32:18;100699.22;;;19.52
84354;BMP280;74538;43.522;1.516;2024-02-14T06:34:44;100703.03;;;19.55
84354;BMP280;74538;43.522;1.516;2024-02-14T06:37:09;100712.16;;;19.57
84354;BMP280;74538;43.522;1.516;2024-02-14T06:39:35;100710.97;;;19.58
84354;BMP280;74538;43.522;1.516;2024-02-14T06:42:01;100708.19;;;19.62
84354;BMP280;74538;43.522;1.516;2024-02-14T06:44:26;100710.47;;;19.63
84354;BMP280;74538;43.522;1.516;2024-02-14T06:46:52;100722.72;;;19.64
84354;BMP280;74538;43.522;1.516;2024-02-14T06:49:18;100710.75;;;19.65
84354;BMP280;74538;43.522;1.516;2024-02-14T06:51:44;100712.25;;;19.66
84354;BMP280;74538;43.522;1.516;2024-02-14T06:54:10;100710.34;;;19.67
84354;BMP280;74538;43.522;1.516;2024-02-14T06:56:38;100714.19;;;19.66
84354;BMP280;74538;43.522;1.516;2024-02-14T06:59:04;100708.81;;;19.66
84354;BMP280;74538;43.522;1.516;2024-02-14T07:01:30;100713.44;;;19.65
84354;BMP280;74538;43.522;1.516;2024-02-14T07:03:56;100715.69;;;19.67
84354;BMP280;74538;43.522;1.516;2024-02-14T07:06:22;100731.00;;;19.70
84354;BMP280;74538;43.522;1.516;2024-02-14T07:08:47;100721.63;;;19.75
84354;BMP280;74538;43.522;1.516;2024-02-14T07:11:14;100729.16;;;19.80
84354;BMP280;74538;43.522;1.516;2024-02-14T07:13:41;100731.31;;;19.85
84354;BMP280;74538;43.522;1.516;2024-02-14T07:16:06;100735.00;;;19.91
84354;BMP280;74538;43.522;1.516;2024-02-14T07:18:33;100737.84;;;19.96
84354;BMP280;74538;43.522;1.516;2024-02-14T07:20:59;100739.59;;;20.03
84354;BMP280;74538;43.522;1.516;2024-02-14T07:23:25;100755.97;;;20.09
84354;BMP280;74538;43.522;1.516;2024-02-14T07:25:51;100743.03;;;20.16
84354;BMP280;74538;43.522;1.516;2024-02-14T07:28:17;100750.56;;;20.21
84354;BMP280;74538;43.522;1.516;2024-02-14T07:30:43;100749.97;;;20.26
84354;BMP280;74538;43.522;1.516;2024-02-14T07:33:09;100750.63;;;20.30
84354;BMP280;74538;43.522;1.516;2024-02-14T07:35:36;100750.53;;;20.34
84354;BMP280;74538;43.522;1.516;2024-02-14T07:38:02;100746.97;;;20.37
84354;BMP280;74538;43.522;1.516;2024-02-14T07:40:28;100746.84;;;20.40
84354;BMP280;74538;43.522;1.516;2024-02-14T07:42:59;100751.34;;;20.43
84354;BMP280;74538;43.522;1.516;2024-02-14T07:45:25;100749.00;;;20.46
84354;BMP280;74538;43.522;1.516;2024-02-14T07:47:51;100754.25;;;20.49
84354;BMP280;74538;43.522;1.516;2024-02-14T07:50:16;100758.00;;;20.52
84354;BMP280;74538;43.522;1.516;2024-02-14T07:52:43;100762.53;;;20.55
84354;BMP280;74538;43.522;1.516;2024-02-14T07:55:09;100771.25;;;20.59
84354;BMP280;74538;43.522;1.516;2024-02-14T07:57:42;100768.00;;;20.64
84354;BMP280;74538;43.522;1.516;2024-02-14T08:00:08;100777.00;;;20.70
84354;BMP280;74538;43.522;1.516;2024-02-14T08:02:35;100785.31;;;20.75
84354;BMP280;74538;43.522;1.516;2024-02-14T08:05:01;100778.91;;;20.82
84354;BMP280;74538;43.522;1.516;2024-02-14T08:07:30;100777.19;;;20.88
84354;BMP280;74538;43.522;1.516;2024-02-14T08:09:56;100783.47;;;20.94
84354;BMP280;74538;43.522;1.516;2024-02-14T08:12:22;100787.13;;;21.00
84354;BMP280;74538;43.522;1.516;2024-02-14T08:14:48;100785.38;;;21.06
84354;BMP280;74538;43.522;1.516;2024-02-14T08:17:14;100782.44;;;21.13
84354;BMP280;74538;43.522;1.516;2024-02-14T08:19:39;100779.19;;;21.18
84354;BMP280;74538;43.522;1.516;2024-02-14T08:22:05;100787.59;;;21.21
84354;BMP280;74538;43.522;1.516;2024-02-14T08:24:32;100785.50;;;21.25
84354;BMP280;74538;43.522;1.516;2024-02-14T08:26:57;100783.44;;;21.29
84354;BMP280;74538;43.522;1.516;2024-02-14T08:29:23;100776.38;;;21.31
84354;BMP280;74538;43.522;1.516;2024-02-14T08:31:49;100776.28;;;21.35
84354;BMP280;74538;43.522;1.516;2024-02-14T08:34:15;100775.41;;;21.38
84354;BMP280;74538;43.522;1.516;2024-02-14T08:36:42;100771.50;;;21.39
84354;BMP280;74538;43.522;1.516;2024-02-14T08:39:08;100759.84;;;21.42
84354;BMP280;74538;43.522;1.516;2024-02-14T08:41:38;100766.56;;;21.46
84354;BMP280;74538;43.522;1.516;2024-02-14T08:44:05;100766.50;;;21.50
84354;BMP280;74538;43.522;1.516;2024-02-14T08:46:31;100770.50;;;21.54
84354;BMP280;74538;43.522;1.516;2024-02-14T08:48:58;100776.09;;;21.60
84354;BMP280;74538;43.522;1.516;2024-02-14T08:51:24;100776.28;;;21.66
84354;BMP280;74538;43.522;1.516;2024-02-14T08:53:50;100763.41;;;21.70
84354;BMP280;74538;43.522;1.516;2024-02-14T08:56:20;100773.16;;;21.76
84354;BMP280;74538;43.522;1.516;2024-02-14T08:58:46;100776.78;;;21.82
84354;BMP280;74538;43.522;1.516;2024-02-14T09:01:12;100768.13;;;21.87
84354;BMP280;74538;43.522;1.516;2024-02-14T09:03:38;100775.63;;;21.92
84354;BMP280;74538;43.522;1.516;2024-02-14T09:06:04;100768.44;;;21.99
84354;BMP280;74538;43.522;1.516;2024-02-14T09:08:29;100770.56;;;22.04
84354;BMP280;74538;43.522;1.516;2024-02-14T09:10:56;100769.50;;;22.10
84354;BMP280;74538;43.522;1.516;2024-02-14T09:13:24;100766.22;;;22.15
84354;BMP280;74538;43.522;1.516;2024-02-14T09:15:50;100771.03;;;22.20
84354;BMP280;74538;43.522;1.516;2024-02-14T09:18:18;100765.03;;;22.25
84354;BMP280;74538;43.522;1.516;2024-02-14T09:20:44;100766.38;;;22.30
84354;BMP280;74538;43.522;1.516;2024-02-14T09:23:12;100760.41;;;22.35
84354;BMP280;74538;43.522;1.516;2024-02-14T09:25:39;100759.06;;;22.40
84354;BMP280;74538;43.522;1.516;2024-02-14T09:28:05;100755.91;;;22.41
84354;BMP280;74538;43.522;1.516;2024-02-14T09:30:32;100746.91;;;22.44
84354;BMP280;74538;43.522;1.516;2024-02-14T09:32:58;100751.41;;;22.47
84354;BMP280;74538;43.522;1.516;2024-02-14T09:35:24;100755.91;;;22.50
84354;BMP280;74538;43.522;1.516;2024-02-14T09:37:50;100758.03;;;22.55
84354;BMP280;74538;43.522;1.516;2024-02-14T09:40:16;100751.97;;;22.60
84354;BMP280;74538;43.522;1.516;2024-02-14T09:42:56;100748.41;;;22.63
84354;BMP280;74538;43.522;1.516;2024-02-14T09:45:27;100743.91;;;22.69
84354;BMP280;74538;43.522;1.516;2024-02-14T09:47:53;100744.75;;;22.76
84354;BMP280;74538;43.522;1.516;2024-02-14T09:50:20;100746.88;;;22.81
84354;BMP280;74538;43.522;1.516;2024-02-14T09:52:47;100751.69;;;22.86
84354;BMP280;74538;43.522;1.516;2024-02-14T09:55:15;100741.47;;;22.90
84354;BMP280;74538;43.522;1.516;2024-02-14T09:57:42;100730.78;;;22.95
84354;BMP280;74538;43.522;1.516;2024-02-14T10:00:11;100730.94;;;23.01
84354;BMP280;74538;43.522;1.516;2024-02-14T10:02:40;100743.78;;;23.06
84354;BMP280;74538;43.522;1.516;2024-02-14T10:05:06;100740.50;;;23.11
84354;BMP280;74538;43.522;1.516;2024-02-14T10:07:40;100742.59;;;23.16
84354;BMP280;74538;43.522;1.516;2024-02-14T10:10:06;100734.63;;;23.22
84354;BMP280;74538;43.522;1.516;2024-02-14T10:12:32;100735.94;;;23.26
84354;BMP280;74538;43.522;1.516;2024-02-14T10:14:58;100734.59;;;23.31
84354;BMP280;74538;43.522;1.516;2024-02-14T10:17:24;100733.19;;;23.35
84354;BMP280;74538;43.522;1.516;2024-02-14T10:19:59;100736.78;;;23.41
84354;BMP280;74538;43.522;1.516;2024-02-14T10:22:32;100729.28;;;23.45
84354;BMP280;74538;43.522;1.516;2024-02-14T10:24:57;100731.31;;;23.50
84354;BMP280;74538;43.522;1.516;2024-02-14T10:27:23;100729.94;;;23.55
84354;BMP280;74538;43.522;1.516;2024-02-14T10:29:48;100737.47;;;23.60
84354;BMP280;74538;43.522;1.516;2024-02-14T10:32:15;100727.94;;;23.65
84354;BMP280;74538;43.522;1.516;2024-02-14T10:34:43;100731.53;;;23.71
84354;BMP280;74538;43.522;1.516;2024-02-14T10:37:13;100729.69;;;23.77
84354;BMP280;74538;43.522;1.516;2024-02-14T10:39:41;100735.66;;;23.81
84354;BMP280;74538;43.522;1.516;2024-02-14T10:42:07;100728.59;;;23.83
84354;BMP280;74538;43.522;1.516;2024-02-14T10:44:32;100736.25;;;23.85
84354;BMP280;74538;43.522;1.516;2024-02-14T10:47:02;100724.94;;;23.86
84354;BMP280;74538;43.522;1.516;2024-02-14T10:49:29;100728.41;;;23.87
84354;BMP280;74538;43.522;1.516;2024-02-14T10:51:56;100727.66;;;23.86
84354;BMP280;74538;43.522;1.516;2024-02-14T10:54:26;100723.00;;;23.87
84354;BMP280;74538;43.522;1.516;2024-02-14T10:56:53;100723.00;;;23.87
84354;BMP280;74538;43.522;1.516;2024-02-14T10:59:23;100728.41;;;23.87
84354;BMP280;74538;43.522;1.516;2024-02-14T11:01:49;100731.09;;;23.87
84354;BMP280;74538;43.522;1.516;2024-02-14T11:04:17;100728.41;;;23.87
84354;BMP280;74538;43.522;1.516;2024-02-14T11:06:53;100726.94;;;23.86
84354;BMP280;74538;43.522;1.516;2024-02-14T11:09:32;100725.44;;;23.85
84354;BMP280;74538;43.522;1.516;2024-02-14T11:12:00;100728.13;;;23.85
84354;BMP280;74538;43.522;1.516;2024-02-14T11:14:31;100718.50;;;23.84
84354;BMP280;74538;43.522;1.516;2024-02-14T11:16:59;100719.72;;;23.83
84354;BMP280;74538;43.522;1.516;2024-02-14T11:19:31;100715.53;;;23.82
84354;BMP280;74538;43.522;1.516;2024-02-14T11:22:21;100717.00;;;23.83
84354;BMP280;74538;43.522;1.516;2024-02-14T11:24:47;100707.41;;;23.82
84354;BMP280;74538;43.522;1.516;2024-02-14T11:27:14;100697.78;;;23.81
84354;BMP280;74538;43.522;1.516;2024-02-14T11:29:40;100698.56;;;23.81
84354;BMP280;74538;43.522;1.516;2024-02-14T11:32:11;100685.44;;;23.80
84354;BMP280;74538;43.522;1.516;2024-02-14T11:34:37;100690.84;;;23.80
84354;BMP280;74538;43.522;1.516;2024-02-14T11:37:03;100681.25;;;23.79
84354;BMP280;74538;43.522;1.516;2024-02-14T11:39:30;100685.44;;;23.80
84354;BMP280;74538;43.522;1.516;2024-02-14T11:41:58;100677.31;;;23.80
84354;BMP280;74538;43.522;1.516;2024-02-14T11:44:25;100678.53;;;23.79
84354;BMP280;74538;43.522;1.516;2024-02-14T11:46:51;100680.03;;;23.80
84354;BMP280;74538;43.522;1.516;2024-02-14T11:49:17;100680.03;;;23.80
84354;BMP280;74538;43.522;1.516;2024-02-14T11:51:43;100669.19;;;23.80
84354;BMP280;74538;43.522;1.516;2024-02-14T11:54:09;100669.19;;;23.80
84354;BMP280;74538;43.522;1.516;2024-02-14T11:56:37;100662.28;;;23.79
84354;BMP280;74538;43.522;1.516;2024-02-14T11:59:05;100657.63;;;23.79
84354;BMP280;74538;43.522;1.516;2024-02-14T12:01:31;100657.63;;;23.79
84354;BMP280;74538;43.522;1.516;2024-02-14T12:03:59;100652.97;;;23.80
84354;BMP280;74538;43.522;1.516;2024-02-14T12:06:29;100651.47;;;23.79
84354;BMP280;74538;43.522;1.516;2024-02-14T12:09:05;100650.00;;;23.78
84354;BMP280;74538;43.522;1.516;2024-02-14T12:11:35;100644.56;;;23.78
84354;BMP280;74538;43.522;1.516;2024-02-14T12:14:08;100639.16;;;23.78
84354;BMP280;74538;43.522;1.516;2024-02-14T12:16:38;100629.09;;;23.78
84354;BMP280;74538;43.522;1.516;2024-02-14T12:19:09;100628.34;;;23.78
84354;BMP280;74538;43.522;1.516;2024-02-14T12:21:39;100622.19;;;23.77
84354;BMP280;74538;43.522;1.516;2024-02-14T12:24:11;100616.00;;;23.77
84354;BMP280;74538;43.522;1.516;2024-02-14T12:26:40;100612.09;;;23.78
84354;BMP280;74538;43.522;1.516;2024-02-14T12:29:07;100612.84;;;23.78
84354;BMP280;74538;43.522;1.516;2024-02-14T12:31:34;100606.69;;;23.78
84354;BMP280;74538;43.522;1.516;2024-02-14T12:34:02;100597.34;;;23.79
84354;BMP280;74538;43.522;1.516;2024-02-14T12:36:30;100597.34;;;23.79
84354;BMP280;74538;43.522;1.516;2024-02-14T12:38:58;100592.66;;;23.79
84354;BMP280;74538;43.522;1.516;2024-02-14T12:41:24;100582.59;;;23.80
84354;BMP280;74538;43.522;1.516;2024-02-14T12:43:52;100587.25;;;23.79
84354;BMP280;74538;43.522;1.516;2024-02-14T12:46:18;100585.31;;;23.80
84354;BMP280;74538;43.522;1.516;2024-02-14T12:48:43;100577.19;;;23.80
84354;BMP280;74538;43.522;1.516;2024-02-14T12:51:10;100577.94;;;23.80
84354;BMP280;74538;43.522;1.516;2024-02-14T12:53:35;100574.03;;;23.81
84354;BMP280;74538;43.522;1.516;2024-02-14T12:56:01;100565.16;;;23.81
84354;BMP280;74538;43.522;1.516;2024-02-14T12:58:27;100566.69;;;23.82
84354;BMP280;74538;43.522;1.516;2024-02-14T13:00:53;100570.09;;;23.82
84354;BMP280;74538;43.522;1.516;2024-02-14T13:03:19;100560.03;;;23.83
84354;BMP280;74538;43.522;1.516;2024-02-14T13:05:45;100564.69;;;23.82
84354;BMP280;74538;43.522;1.516;2024-02-14T13:08:12;100560.03;;;23.83
84354;BMP280;74538;43.522;1.516;2024-02-14T13:10:38;100560.78;;;23.83
84354;BMP280;74538;43.522;1.516;2024-02-14T13:13:04;100568.44;;;23.85
84354;BMP280;74538;43.522;1.516;2024-02-14T13:15:30;100564.97;;;23.84
84354;BMP280;74538;43.522;1.516;2024-02-14T13:17:56;100555.66;;;23.85
84354;BMP280;74538;43.522;1.516;2024-02-14T13:20:24;100559.09;;;23.86
84354;BMP280;74538;43.522;1.516;2024-02-14T13:22:50;100557.88;;;23.87
84354;BMP280;74538;43.522;1.516;2024-02-14T13:25:17;100544.34;;;23.87
84354;BMP280;74538;43.522;1.516;2024-02-14T13:27:43;100550.06;;;23.89
84354;BMP280;74538;43.522;1.516;2024-02-14T13:30:10;100538.00;;;23.90
84354;BMP280;74538;43.522;1.516;2024-02-14T13:32:36;100527.94;;;23.91
84354;BMP280;74538;43.522;1.516;2024-02-14T13:35:03;100529.41;;;23.92
84354;BMP280;74538;43.522;1.516;2024-02-14T13:37:31;100532.13;;;23.92
84354;BMP280;74538;43.522;1.516;2024-02-14T13:39:57;100530.16;;;23.92
84354;BMP280;74538;43.522;1.516;2024-02-14T13:42:23;100531.66;;;23.93
84354;BMP280;74538;43.522;1.516;2024-02-14T13:44:48;100527.72;;;23.94
84354;BMP280;74538;43.522;1.516;2024-02-14T13:47:17;100523.06;;;23.95
84354;BMP280;74538;43.522;1.516;2024-02-14T13:49:47;100509.06;;;23.96
84354;BMP280;74538;43.522;1.516;2024-02-14T13:52:12;100515.25;;;23.97
84354;BMP280;74538;43.522;1.516;2024-02-14T13:54:41;100516.72;;;23.98